Time;durP1;ratioP1;P1;durP2;ratioP2;P2;SDS_P1;SDS_P2;PMS_P1;PMS_P2;Temp;Humidity;BMP_temperature;BMP_pressure;BME280_temperature;BME280_humidity;BME280_pressure;Samples;Min_cycle;Max_cycle;Signal;HPM_P1;HPM_P2
2022/03/11 00:03:03;;;;;;;28.80;14.00;;;;;;;-0.63;45.16;100844.66;232674;1221;139560;-60
2022/03/11 00:08:07;;;;;;;31.00;14.00;;;;;;;-0.66;45.17;100841.84;232688;1222;138841;-62
2022/03/11 00:13:10;;;;;;;32.70;14.10;;;;;;;-0.72;45.19;100847.17;232734;1221;140995;-59
2022/03/11 00:18:13;;;;;;;32.10;13.80;;;;;;;-0.75;45.01;100840.34;232825;1222;139898;-58
2022/03/11 00:23:16;;;;;;;36.50;14.60;;;;;;;-0.79;45.10;100838.19;232750;1222;139681;-59
2022/03/11 00:28:19;;;;;;;35.90;14.90;;;;;;;-0.82;45.07;100831.53;232523;1222;139492;-59
2022/03/11 00:33:22;;;;;;;34.50;14.60;;;;;;;-0.87;45.25;100833.20;232918;1221;139474;-61
2022/03/11 00:38:25;;;;;;;36.30;15.50;;;;;;;-0.91;45.27;100831.23;232695;1221;139275;-61
2022/03/11 00:43:28;;;;;;;33.80;14.20;;;;;;;-0.99;45.17;100834.62;232760;1221;138921;-59
2022/03/11 00:48:32;;;;;;;37.00;15.60;;;;;;;-1.04;45.37;100837.52;232836;1221;138870;-61
2022/03/11 00:53:36;;;;;;;33.80;14.40;;;;;;;-1.08;45.35;100837.10;232258;1222;139155;-59
2022/03/11 00:58:39;;;;;;;34.60;15.30;;;;;;;-1.11;45.45;100835.49;232786;1221;139813;-58
2022/03/11 01:03:42;;;;;;;32.60;15.90;;;;;;;-1.14;45.58;100834.74;232843;1221;140110;-60
2022/03/11 01:08:44;;;;;;;32.00;15.50;;;;;;;-1.18;45.57;100835.23;232832;1221;140143;-58
2022/03/11 01:13:48;;;;;;;32.70;16.80;;;;;;;-1.22;45.52;100840.22;232782;1222;140134;-59
2022/03/11 01:18:51;;;;;;;36.30;16.60;;;;;;;-1.25;45.72;100835.64;232746;1222;139515;-58
2022/03/11 01:23:54;;;;;;;36.80;17.50;;;;;;;-1.29;45.70;100834.70;232757;1220;140765;-60
2022/03/11 01:28:57;;;;;;;39.70;17.00;;;;;;;-1.30;45.68;100831.73;232732;1222;139658;-57
2022/03/11 01:34:00;;;;;;;37.30;17.20;;;;;;;-1.31;45.85;100827.02;232682;1221;139292;-60
2022/03/11 01:39:04;;;;;;;41.10;17.80;;;;;;;-1.34;46.01;100824.88;232790;1221;139586;-62
2022/03/11 01:44:09;;;;;;;42.20;18.30;;;;;;;-1.36;46.07;100829.73;232660;1222;139628;-59
2022/03/11 01:49:12;;;;;;;54.10;22.10;;;;;;;-1.29;46.53;100828.97;232819;1222;139900;-59
2022/03/11 01:54:15;;;;;;;44.50;19.20;;;;;;;-1.23;46.29;100830.45;232948;1220;139801;-59
2022/03/11 01:59:19;;;;;;;42.50;19.70;;;;;;;-1.32;46.14;100834.14;232863;1221;139644;-60
2022/03/11 02:04:22;;;;;;;43.60;19.20;;;;;;;-1.41;46.20;100834.35;232953;1221;139444;-61
2022/03/11 02:09:26;;;;;;;43.00;19.10;;;;;;;-1.51;46.14;100841.16;232762;1222;139328;-59
2022/03/11 02:14:29;;;;;;;39.90;19.00;;;;;;;-1.54;46.27;100845.11;232807;1221;139880;-59
2022/03/11 02:19:32;;;;;;;43.70;19.20;;;;;;;-1.59;46.07;100845.02;232817;1220;139650;-58
2022/03/11 02:24:35;;;;;;;32.80;15.90;;;;;;;-1.63;46.28;100846.16;232922;1221;139554;-59
2022/03/11 02:29:38;;;;;;;34.20;17.00;;;;;;;-1.68;46.28;100848.89;232725;1222;139490;-59
2022/03/11 02:34:41;;;;;;;32.40;15.70;;;;;;;-1.72;46.31;100854.23;232804;1221;139439;-59
2022/03/11 02:39:44;;;;;;;33.50;16.20;;;;;;;-1.73;46.36;100851.59;232709;1222;139818;-58
2022/03/11 02:44:47;;;;;;;33.20;15.50;;;;;;;-1.76;46.50;100846.84;232846;1222;139896;-59
2022/03/11 02:49:50;;;;;;;32.00;16.00;;;;;;;-1.81;46.59;100844.32;232753;1221;139888;-59
2022/03/11 02:54:53;;;;;;;30.80;15.40;;;;;;;-1.83;46.67;100850.71;232730;1221;140103;-59
2022/03/11 02:59:57;;;;;;;33.40;16.00;;;;;;;-1.87;46.71;100850.65;232683;1221;139503;-58
2022/03/11 03:05:01;;;;;;;34.80;17.10;;;;;;;-1.93;46.80;100850.88;232994;1220;139408;-59
2022/03/11 03:10:05;;;;;;;39.50;17.40;;;;;;;-1.99;46.96;100854.61;232579;1221;139815;-61
2022/03/11 03:15:09;;;;;;;39.90;16.20;;;;;;;-2.03;47.20;100854.17;232835;1222;139825;-60
2022/03/11 03:20:12;;;;;;;35.70;17.40;;;;;;;-2.07;47.24;100853.05;232773;1221;139494;-60
2022/03/11 03:25:15;;;;;;;36.60;17.70;;;;;;;-2.11;47.24;100855.27;232759;1222;140132;-59
2022/03/11 03:30:19;;;;;;;37.30;17.20;;;;;;;-2.14;47.46;100854.15;232784;1222;140345;-60
2022/03/11 03:35:22;;;;;;;35.70;17.80;;;;;;;-2.15;47.57;100853.61;232674;1222;139832;-59
2022/03/11 03:40:25;;;;;;;37.90;17.50;;;;;;;-2.17;47.48;100850.98;232833;1222;140025;-59
2022/03/11 03:45:28;;;;;;;38.00;18.60;;;;;;;-2.16;47.52;100850.63;232816;1221;139392;-61
2022/03/11 03:50:31;;;;;;;39.60;17.00;;;;;;;-2.18;47.58;100849.20;232828;1221;139435;-60
2022/03/11 03:55:34;;;;;;;44.60;18.90;;;;;;;-2.20;47.55;100845.02;232735;1222;139524;-62
2022/03/11 04:00:38;;;;;;;42.10;18.70;;;;;;;-2.20;47.51;100847.96;233048;1220;139738;-60
2022/03/11 04:05:41;;;;;;;47.60;19.60;;;;;;;-2.23;47.38;100848.59;232679;1221;139115;-60
2022/03/11 04:10:44;;;;;;;42.60;19.40;;;;;;;-2.28;47.44;100853.20;232835;1221;139541;-61
2022/03/11 04:15:47;;;;;;;38.90;18.40;;;;;;;-2.28;47.66;100854.23;232896;1222;139658;-61
2022/03/11 04:20:50;;;;;;;39.70;18.90;;;;;;;-2.32;47.62;100854.50;232844;1222;139183;-60
2022/03/11 04:25:53;;;;;;;45.70;20.60;;;;;;;-2.35;47.75;100853.73;232625;1222;139504;-61
2022/03/11 04:30:56;;;;;;;40.10;18.10;;;;;;;-2.37;47.82;100853.52;232742;1222;141627;-60
2022/03/11 04:35:59;;;;;;;43.40;18.60;;;;;;;-2.43;47.88;100858.99;232845;1222;141798;-62
2022/03/11 04:41:02;;;;;;;39.30;18.30;;;;;;;-2.48;47.93;100864.63;232821;1221;139265;-62
2022/03/11 04:46:06;;;;;;;42.60;19.00;;;;;;;-2.53;48.04;100861.55;232447;1222;141682;-60
2022/03/11 04:51:09;;;;;;;38.60;18.60;;;;;;;-2.56;48.18;100862.36;232869;1222;139680;-60
2022/03/11 04:56:13;;;;;;;38.80;17.70;;;;;;;-2.56;48.44;100862.89;232828;1222;139206;-60
2022/03/11 05:01:16;;;;;;;39.60;17.70;;;;;;;-2.58;48.50;100856.96;232878;1222;139560;-60
2022/03/11 05:06:19;;;;;;;36.70;16.20;;;;;;;-2.61;48.49;100854.29;232614;1222;139508;-59
2022/03/11 05:11:23;;;;;;;34.20;16.70;;;;;;;-2.63;48.56;100852.50;232861;1222;139487;-60
2022/03/11 05:16:26;;;;;;;36.20;16.80;;;;;;;-2.65;48.61;100852.83;232870;1222;139662;-60
2022/03/11 05:21:29;;;;;;;39.40;16.70;;;;;;;-2.66;48.64;100852.63;232943;1221;139479;-61
2022/03/11 05:26:32;;;;;;;37.90;16.80;;;;;;;-2.68;48.76;100862.48;232820;1221;140318;-60
2022/03/11 05:31:35;;;;;;;32.70;16.30;;;;;;;-2.67;48.83;100866.14;232887;1222;140037;-59
2022/03/11 05:36:38;;;;;;;29.30;15.20;;;;;;;-2.66;49.02;100869.98;232917;1222;139760;-59
2022/03/11 05:41:42;;;;;;;37.10;16.70;;;;;;;-2.62;49.03;100875.64;232836;1221;139081;-61
2022/03/11 05:46:45;;;;;;;34.50;15.00;;;;;;;-2.55;49.06;100880.64;232835;1222;140371;-60
2022/03/11 05:51:49;;;;;;;32.30;14.80;;;;;;;-2.49;49.09;100881.63;232771;1220;139989;-61
2022/03/11 05:56:54;;;;;;;31.50;15.50;;;;;;;-2.43;49.10;100888.02;232497;1222;139483;-60
2022/03/11 06:01:59;;;;;;;39.90;16.60;;;;;;;-2.38;49.00;100891.59;232740;1222;142255;-60
2022/03/11 06:07:07;;;;;;;32.60;15.80;;;;;;;-2.32;49.09;100894.50;232736;1222;140709;-59
2022/03/11 06:12:10;;;;;;;33.90;16.00;;;;;;;-2.24;49.00;100896.73;232923;1221;140615;-60
2022/03/11 06:17:13;;;;;;;116.40;70.70;;;;;;;-2.13;49.18;100902.16;232913;1221;139508;-63
2022/03/11 06:22:16;;;;;;;44.90;23.30;;;;;;;-1.84;49.73;100900.10;232855;1221;140623;-62
2022/03/11 06:27:19;;;;;;;39.70;16.70;;;;;;;-1.69;48.97;100897.42;232760;1221;140202;-61
2022/03/11 06:32:23;;;;;;;33.80;16.00;;;;;;;-1.64;48.52;100897.14;232678;1221;139491;-60
2022/03/11 06:37:26;;;;;;;34.80;15.40;;;;;;;-1.61;48.40;100899.64;232815;1222;139716;-60
2022/03/11 06:42:37;;;;;;;63.30;33.80;;;;;;;-1.51;48.65;100907.12;232934;1222;139433;-60
2022/03/11 06:47:41;;;;;;;39.80;19.90;;;;;;;-1.26;48.78;100908.06;232874;1222;140298;-62
2022/03/11 06:52:45;;;;;;;31.80;16.10;;;;;;;-1.18;48.34;100910.27;232808;1221;139693;-61
2022/03/11 06:57:50;;;;;;;32.00;15.90;;;;;;;-1.11;48.29;100909.52;232741;1221;139785;-60
2022/03/11 07:02:53;;;;;;;34.70;15.50;;;;;;;-1.03;48.12;100911.90;232889;1222;139263;-61
2022/03/11 07:07:56;;;;;;;40.70;21.50;;;;;;;-0.89;48.57;100912.63;232768;1222;141278;-61
2022/03/11 07:12:59;;;;;;;33.40;16.40;;;;;;;-0.68;48.34;100917.63;232866;1221;138981;-62
2022/03/11 07:18:02;;;;;;;32.30;15.60;;;;;;;-0.62;48.08;100916.49;233028;1221;141727;-59
2022/03/11 07:23:05;;;;;;;27.90;14.30;;;;;;;-0.58;47.85;100920.56;232914;1221;140022;-63
2022/03/11 07:28:08;;;;;;;30.80;14.10;;;;;;;-0.54;47.62;100921.48;232855;1222;139254;-63
2022/03/11 07:33:12;;;;;;;27.10;13.30;;;;;;;-0.48;47.35;100911.63;232836;1222;139536;-63
2022/03/11 07:38:15;;;;;;;25.30;13.80;;;;;;;-0.40;47.44;100905.10;232833;1221;139634;-63
2022/03/11 07:43:18;;;;;;;210.80;123.00;;;;;;;-0.31;47.25;100907.13;232791;1222;141661;-63
2022/03/11 07:48:21;;;;;;;33.30;18.00;;;;;;;-0.12;47.78;100907.52;232765;1222;139596;-64
2022/03/11 07:53:24;;;;;;;30.00;14.20;;;;;;;0.00;47.38;100905.23;232697;1222;139252;-63
2022/03/11 07:58:27;;;;;;;22.90;11.70;;;;;;;0.09;47.13;100905.66;232826;1222;139305;-62
2022/03/11 08:03:30;;;;;;;20.20;9.60;;;;;;;0.16;46.64;100910.27;232875;1222;139475;-63
2022/03/11 08:08:35;;;;;;;19.80;10.70;;;;;;;0.21;45.99;100906.67;232851;1222;138396;-62
2022/03/11 08:13:38;;;;;;;17.40;9.20;;;;;;;0.29;46.00;100903.61;232628;1222;139061;-62
2022/03/11 08:18:47;;;;;;;18.80;9.30;;;;;;;0.33;45.61;100903.29;232863;1222;139510;-62
2022/03/11 08:23:51;;;;;;;20.20;9.10;;;;;;;0.36;45.41;100903.34;232997;1221;139090;-62
2022/03/11 08:28:54;;;;;;;224.10;150.10;;;;;;;0.46;45.29;100905.68;232675;1223;139483;-61
2022/03/11 08:34:17;;;;;;;23.10;12.50;;;;;;;0.69;45.60;100904.66;232833;1221;140136;-62
2022/03/11 08:39:39;;;;;;;17.40;9.70;;;;;;;0.82;44.75;100911.58;232755;1222;138744;-62
2022/03/11 08:44:42;;;;;;;15.00;8.20;;;;;;;0.84;44.65;100910.89;232573;1222;141541;-61
2022/03/11 08:49:45;;;;;;;16.80;8.60;;;;;;;0.92;44.28;100912.17;232754;1222;139652;-60
2022/03/11 08:54:48;;;;;;;11.90;7.20;;;;;;;1.06;44.17;100914.20;232945;1221;138709;-61
2022/03/11 08:59:54;;;;;;;12.80;7.20;;;;;;;1.09;43.66;100917.38;232992;1221;138800;-61
2022/03/11 09:04:57;;;;;;;12.00;5.60;;;;;;;1.18;43.51;100910.09;232852;1222;139053;-62
2022/03/11 09:10:00;;;;;;;17.80;8.80;;;;;;;1.30;43.15;100910.86;232865;1221;138476;-63
2022/03/11 09:15:05;;;;;;;19.50;12.30;;;;;;;1.42;43.26;100903.59;232874;1221;140647;-61
2022/03/11 09:20:09;;;;;;;11.30;6.00;;;;;;;1.57;42.72;100900.17;232768;1222;139155;-61
2022/03/11 09:25:20;;;;;;;11.20;6.00;;;;;;;1.62;42.29;100899.13;232884;1222;139572;-60
2022/03/11 09:30:23;;;;;;;11.50;5.70;;;;;;;1.65;42.07;100894.08;232935;1222;139017;-60
2022/03/11 09:35:26;;;;;;;11.00;5.70;;;;;;;1.71;41.90;100893.05;232824;1222;139405;-61
2022/03/11 09:40:30;;;;;;;11.10;6.80;;;;;;;1.78;41.54;100889.75;232839;1222;138508;-62
2022/03/11 09:45:34;;;;;;;12.30;7.10;;;;;;;1.84;41.46;100889.24;232683;1221;138801;-62
2022/03/11 09:50:37;;;;;;;10.70;6.20;;;;;;;1.88;41.44;100882.08;232795;1221;138924;-64
2022/03/11 09:55:41;;;;;;;170.00;109.00;;;;;;;1.98;41.01;100878.79;232855;1222;139226;-63
2022/03/11 10:00:49;;;;;;;22.10;9.50;;;;;;;2.19;41.19;100876.39;232880;1222;139366;-63
2022/03/11 10:05:54;;;;;;;13.90;6.80;;;;;;;2.29;40.39;100877.45;232898;1221;139123;-63
2022/03/11 10:11:26;;;;;;;15.70;6.10;;;;;;;2.44;40.37;100876.92;232817;1221;139809;-64
2022/03/11 10:16:30;;;;;;;10.90;5.50;;;;;;;2.61;40.16;100873.62;232700;1221;138567;-62
2022/03/11 10:21:36;;;;;;;10.90;5.80;;;;;;;2.75;39.83;100870.98;232642;1222;138753;-62
2022/03/11 10:26:42;;;;;;;10.70;5.20;;;;;;;2.86;39.73;100875.53;232889;1221;138529;-63
2022/03/11 10:31:49;;;;;;;44.10;27.60;;;;;;;2.95;39.18;100875.88;232729;1221;139062;-61
2022/03/11 10:37:02;;;;;;;17.80;8.80;;;;;;;3.15;39.46;100870.04;232914;1222;139811;-61
2022/03/11 10:42:14;;;;;;;11.10;5.70;;;;;;;3.43;39.32;100869.45;232820;1221;138809;-61
2022/03/11 10:47:21;;;;;;;12.10;5.50;;;;;;;3.72;38.77;100864.59;232601;1222;139343;-60
2022/03/11 10:52:41;;;;;;;10.60;5.90;;;;;;;3.98;38.45;100858.66;232642;1222;139117;-61
2022/03/11 10:57:45;;;;;;;11.40;6.70;;;;;;;4.33;38.78;100858.60;232766;1221;138879;-62
2022/03/11 11:02:49;;;;;;;10.80;5.10;;;;;;;4.60;38.14;100852.77;232890;1221;139219;-62
2022/03/11 11:07:53;;;;;;;9.10;4.20;;;;;;;4.67;37.55;100850.08;232722;1222;139083;-63
2022/03/11 11:12:56;;;;;;;9.20;4.80;;;;;;;4.69;37.32;100844.96;233003;1222;138585;-62
2022/03/11 11:18:07;;;;;;;8.40;4.40;;;;;;;4.77;37.20;100836.45;233093;1220;138403;-61
2022/03/11 11:23:12;;;;;;;7.40;4.30;;;;;;;4.84;36.79;100829.88;232708;1221;139250;-62
2022/03/11 11:28:22;;;;;;;7.30;4.00;;;;;;;4.86;36.50;100835.66;232541;1222;139100;-62
2022/03/11 11:33:25;;;;;;;43.00;16.00;;;;;;;4.85;36.29;100828.80;232508;1222;138964;-62
2022/03/11 11:38:28;;;;;;;9.30;5.10;;;;;;;4.85;36.19;100822.66;232746;1222;140012;-62
2022/03/11 11:43:31;;;;;;;7.90;4.20;;;;;;;4.90;36.08;100818.02;232722;1221;139086;-61
2022/03/11 11:48:45;;;;;;;7.20;4.00;;;;;;;5.00;35.98;100812.30;232796;1223;138939;-63
2022/03/11 11:53:56;;;;;;;7.10;3.70;;;;;;;5.14;35.82;100807.39;232785;1222;138775;-63
2022/03/11 11:59:24;;;;;;;5.80;3.70;;;;;;;5.32;35.63;100807.20;232758;1222;138834;-62
2022/03/11 12:04:32;;;;;;;5.90;3.40;;;;;;;5.57;35.66;100802.99;232727;1221;138748;-62
2022/03/11 12:09:38;;;;;;;7.00;3.70;;;;;;;5.84;35.31;100796.11;232714;1221;139267;-63
2022/03/11 12:15:08;;;;;;;;;;;;;;;6.13;35.08;100794.30;232492;1222;138940;-63
2022/03/11 12:20:35;;;;;;;5.90;3.60;;;;;;;6.35;34.80;100791.13;232677;1221;125359;-64
2022/03/11 12:25:54;;;;;;;7.10;3.80;;;;;;;6.54;34.50;100780.39;232759;1222;140370;-64
2022/03/11 12:31:00;;;;;;;7.10;3.80;;;;;;;6.73;34.37;100773.89;232819;1222;138241;-63
2022/03/11 12:36:07;;;;;;;8.20;4.30;;;;;;;6.84;33.81;100769.09;232508;1222;139903;-61
2022/03/11 12:41:37;;;;;;;313.80;180.90;;;;;;;6.84;33.82;100762.57;232744;1222;139087;-65
2022/03/11 12:46:40;;;;;;;25.40;12.40;;;;;;;6.93;34.07;100756.41;232738;1221;140062;-61
2022/03/11 12:51:43;;;;;;;10.80;5.30;;;;;;;6.95;33.74;100746.66;232652;1222;138937;-62
2022/03/11 12:56:46;;;;;;;8.20;3.90;;;;;;;6.92;33.11;100743.19;232457;1222;139439;-62
2022/03/11 13:01:51;;;;;;;7.10;3.70;;;;;;;6.97;33.26;100742.05;232649;1222;139278;-62
2022/03/11 13:07:00;;;;;;;6.60;3.50;;;;;;;7.05;32.97;100742.57;232832;1221;139124;-62
2022/03/11 13:12:23;;;;;;;7.20;3.90;;;;;;;7.21;32.99;100732.72;232839;1221;139136;-62
2022/03/11 13:17:26;;;;;;;8.30;3.60;;;;;;;7.36;32.58;100729.58;232816;1220;138876;-62
2022/03/11 13:22:30;;;;;;;5.90;3.50;;;;;;;7.55;32.57;100727.73;232739;1221;139055;-62
2022/03/11 13:27:37;;;;;;;7.10;3.50;;;;;;;7.85;32.45;100721.76;232759;1221;139551;-60
2022/03/11 13:32:40;;;;;;;38.90;18.10;;;;;;;8.18;32.55;100721.11;232700;1221;138870;-61
2022/03/11 13:37:43;;;;;;;6.10;4.00;;;;;;;8.45;32.14;100712.50;232764;1222;139126;-61
2022/03/11 13:43:06;;;;;;;9.40;4.30;;;;;;;8.73;31.93;100706.10;232668;1222;138970;-59
2022/03/11 13:48:09;;;;;;;8.10;3.80;;;;;;;8.76;31.33;100698.92;232578;1222;139059;-62
2022/03/11 13:53:26;;;;;;;6.40;3.70;;;;;;;8.36;30.75;100695.58;232673;1221;139436;-61
2022/03/11 13:58:29;;;;;;;9.20;4.10;;;;;;;7.74;30.59;100695.15;232730;1221;138488;-62
2022/03/11 14:03:41;;;;;;;6.30;3.90;;;;;;;7.27;30.53;100696.21;232777;1221;138975;-61
2022/03/11 14:08:49;;;;;;;6.10;3.60;;;;;;;6.81;30.49;100688.70;232708;1222;138701;-61
2022/03/11 14:13:52;;;;;;;7.70;4.10;;;;;;;6.47;30.44;100690.80;232707;1221;138823;-61
2022/03/11 14:18:55;;;;;;;6.90;3.80;;;;;;;6.15;30.62;100686.95;232910;1221;138836;-61
2022/03/11 14:23:58;;;;;;;6.70;4.00;;;;;;;5.92;30.82;100689.79;232729;1220;138824;-61
2022/03/11 14:29:03;;;;;;;8.00;3.60;;;;;;;5.73;30.98;100687.27;232834;1221;138822;-62
2022/03/11 14:34:06;;;;;;;8.70;3.70;;;;;;;5.55;31.25;100684.02;232646;1221;138750;-60
2022/03/11 14:39:09;;;;;;;6.00;3.70;;;;;;;5.40;31.01;100684.23;232778;1221;139698;-60
2022/03/11 14:44:12;;;;;;;6.40;3.50;;;;;;;5.27;30.94;100672.80;232865;1221;139859;-59
2022/03/11 14:49:15;;;;;;;5.90;3.70;;;;;;;5.16;31.31;100674.20;232846;1221;139420;-59
2022/03/11 14:54:20;;;;;;;18.70;8.30;;;;;;;5.10;31.54;100668.13;233031;1221;139407;-62
2022/03/11 14:59:26;;;;;;;10.80;4.80;;;;;;;5.00;31.39;100674.58;232945;1221;138845;-61
2022/03/11 15:04:29;;;;;;;8.80;4.50;;;;;;;4.91;31.33;100665.90;232860;1221;139308;-61
2022/03/11 15:09:33;;;;;;;7.40;4.40;;;;;;;4.82;31.45;100659.16;232690;1221;138771;-60
2022/03/11 15:14:36;;;;;;;6.60;4.00;;;;;;;4.76;31.25;100653.24;232824;1221;139089;-61
2022/03/11 15:19:40;;;;;;;6.70;4.10;;;;;;;4.70;31.53;100650.85;232908;1221;138839;-62
2022/03/11 15:24:43;;;;;;;9.30;4.00;;;;;;;4.63;31.63;100651.46;233154;1220;138865;-61
2022/03/11 15:29:46;;;;;;;6.90;3.50;;;;;;;4.57;31.46;100648.73;232950;1221;139159;-61
2022/03/11 15:34:50;;;;;;;7.90;4.20;;;;;;;4.50;31.55;100647.39;232690;1221;138540;-62
2022/03/11 15:39:53;;;;;;;5.90;3.70;;;;;;;4.45;31.66;100644.46;232961;1220;139620;-61
2022/03/11 15:44:56;;;;;;;9.50;4.20;;;;;;;4.36;31.50;100641.77;232905;1221;138876;-63
2022/03/11 15:50:00;;;;;;;9.20;5.00;;;;;;;4.28;31.67;100637.98;232956;1221;139061;-63
2022/03/11 15:55:09;;;;;;;8.60;4.40;;;;;;;4.23;31.85;100631.89;232882;1222;138548;-61
2022/03/11 16:00:13;;;;;;;10.90;4.70;;;;;;;4.15;32.00;100629.69;232862;1221;138981;-58
2022/03/11 16:05:19;;;;;;;12.30;4.60;;;;;;;4.10;32.09;100629.21;232829;1221;139226;-60
2022/03/11 16:10:28;;;;;;;7.40;4.50;;;;;;;4.04;32.05;100635.95;232714;1222;138996;-60
2022/03/11 16:15:32;;;;;;;8.60;4.50;;;;;;;3.96;32.13;100635.85;232895;1221;138829;-60
2022/03/11 16:20:35;;;;;;;10.60;4.80;;;;;;;3.90;31.93;100633.95;232587;1222;138878;-61
2022/03/11 16:25:38;;;;;;;34.90;19.50;;;;;;;3.87;32.41;100633.99;232774;1221;139676;-61
2022/03/11 16:30:55;;;;;;;11.20;5.90;;;;;;;3.88;32.39;100639.95;232699;1221;139255;-60
2022/03/11 16:36:18;;;;;;;13.90;5.40;;;;;;;3.79;32.25;100643.20;232956;1221;139519;-60
2022/03/11 16:41:22;;;;;;;15.40;6.10;;;;;;;3.70;32.42;100646.77;232544;1221;140203;-61
2022/03/11 16:46:25;;;;;;;10.50;5.00;;;;;;;3.61;32.48;100645.45;232528;1222;139259;-59
2022/03/11 16:51:29;;;;;;;11.30;5.40;;;;;;;3.52;32.56;100651.48;232852;1221;140268;-60
2022/03/11 16:56:32;;;;;;;12.10;5.60;;;;;;;3.41;32.81;100649.98;232569;1221;139689;-59
2022/03/11 17:01:37;;;;;;;15.10;6.30;;;;;;;3.29;32.78;100655.66;232837;1221;139246;-61
2022/03/11 17:06:41;;;;;;;15.70;8.50;;;;;;;3.19;32.94;100660.27;232807;1221;139730;-60
2022/03/11 17:11:46;;;;;;;19.60;9.10;;;;;;;3.09;33.23;100660.87;232863;1221;140384;-60
2022/03/11 17:16:49;;;;;;;22.00;10.00;;;;;;;3.01;33.26;100664.59;232926;1220;140136;-63
2022/03/11 17:21:52;;;;;;;320.90;91.50;;;;;;;2.95;33.49;100665.67;233047;1221;139259;-62
2022/03/11 17:26:55;;;;;;;82.70;26.20;;;;;;;2.97;33.52;100670.21;232883;1221;138785;-60
2022/03/11 17:32:03;;;;;;;28.90;11.40;;;;;;;2.90;33.54;100673.06;232744;1222;139196;-61
2022/03/11 17:37:07;;;;;;;21.50;9.60;;;;;;;2.81;33.65;100670.48;233025;1221;138678;-62
2022/03/11 17:42:10;;;;;;;23.20;10.50;;;;;;;2.72;33.79;100670.17;232826;1221;138680;-63
2022/03/11 17:47:14;;;;;;;29.60;12.60;;;;;;;2.65;33.76;100668.08;232844;1222;139672;-62
2022/03/11 17:52:18;;;;;;;36.70;14.30;;;;;;;2.58;33.81;100671.25;232938;1221;139979;-61
2022/03/11 17:57:21;;;;;;;36.80;14.20;;;;;;;2.54;33.98;100671.44;232771;1222;139855;-61
2022/03/11 18:02:25;;;;;;;29.60;14.30;;;;;;;2.46;33.89;100671.64;233031;1221;139351;-61
2022/03/11 18:07:34;;;;;;;36.30;14.40;;;;;;;2.38;34.07;100674.64;232725;1222;139729;-59
2022/03/11 18:12:37;;;;;;;32.20;15.10;;;;;;;2.31;34.21;100673.08;233007;1221;138858;-61
2022/03/11 18:17:40;;;;;;;42.30;15.00;;;;;;;2.27;34.40;100668.36;232948;1221;140160;-59
2022/03/11 18:22:44;;;;;;;34.80;15.20;;;;;;;2.24;34.39;100670.11;232932;1221;139720;-61
2022/03/11 18:27:48;;;;;;;215.30;106.00;;;;;;;2.24;34.59;100671.35;232821;1222;140465;-62
2022/03/11 18:32:51;;;;;;;37.30;18.30;;;;;;;2.31;34.74;100674.30;232799;1221;139275;-60
2022/03/11 18:37:54;;;;;;;33.60;14.10;;;;;;;2.28;34.63;100676.06;232793;1221;139133;-61
2022/03/11 18:42:58;;;;;;;25.40;12.00;;;;;;;2.23;34.50;100676.24;233124;1221;138931;-61
2022/03/11 18:48:01;;;;;;;25.80;13.10;;;;;;;2.18;34.58;100679.23;232964;1221;138942;-64
2022/03/11 18:53:04;;;;;;;26.40;13.20;;;;;;;2.13;34.59;100673.28;232895;1220;138682;-64
2022/03/11 18:58:08;;;;;;;24.50;13.30;;;;;;;2.09;34.54;100675.21;232855;1221;139137;-61
2022/03/11 19:03:11;;;;;;;25.80;12.30;;;;;;;2.04;34.63;100675.92;232850;1221;139201;-62
2022/03/11 19:08:20;;;;;;;25.40;12.10;;;;;;;1.99;34.62;100681.17;232823;1221;139124;-61
2022/03/11 19:13:23;;;;;;;27.30;12.50;;;;;;;1.96;34.65;100685.90;232367;1220;139191;-59
2022/03/11 19:18:27;;;;;;;262.00;137.30;;;;;;;1.93;34.77;100686.42;232802;1220;140753;-60
2022/03/11 19:23:30;;;;;;;53.10;23.00;;;;;;;1.98;35.09;100685.55;232819;1222;139587;-61
2022/03/11 19:28:34;;;;;;;33.60;15.90;;;;;;;2.00;35.00;100684.31;232949;1221;139247;-58
2022/03/11 19:33:38;;;;;;;30.90;15.80;;;;;;;1.93;34.90;100690.64;232753;1221;138941;-60
2022/03/11 19:38:43;;;;;;;29.40;13.60;;;;;;;1.89;35.15;100688.71;232818;1221;139718;-59
2022/03/11 19:43:46;;;;;;;34.60;15.60;;;;;;;1.82;35.00;100690.11;232977;1221;139247;-61
2022/03/11 19:48:50;;;;;;;30.60;14.80;;;;;;;1.79;34.93;100686.77;232643;1222;139088;-59
2022/03/11 19:53:54;;;;;;;32.40;14.10;;;;;;;1.78;35.03;100692.91;232926;1222;139038;-58
2022/03/11 19:59:01;;;;;;;26.20;13.00;;;;;;;1.71;35.01;100694.66;232939;1221;139958;-59
2022/03/11 20:04:05;;;;;;;28.40;14.30;;;;;;;1.65;35.04;100702.16;232843;1222;139412;-60
2022/03/11 20:09:08;;;;;;;29.10;13.70;;;;;;;1.66;35.19;100700.94;233170;1221;138723;-58
2022/03/11 20:14:12;;;;;;;28.20;13.90;;;;;;;1.62;35.06;100702.15;233317;1222;139169;-61
2022/03/11 20:19:15;;;;;;;28.30;13.90;;;;;;;1.60;35.09;100698.84;233519;1221;139142;-61
2022/03/11 20:24:20;;;;;;;31.00;13.70;;;;;;;1.54;35.25;100704.08;233358;1221;139313;-60
2022/03/11 20:29:24;;;;;;;28.50;13.80;;;;;;;1.44;35.00;100704.58;233377;1221;150989;-61
2022/03/11 20:34:28;;;;;;;360.40;188.30;;;;;;;1.37;35.54;100703.87;233295;1221;139753;-60
2022/03/11 20:39:31;;;;;;;49.10;22.80;;;;;;;1.54;36.08;100709.34;233069;1221;139434;-61
2022/03/11 20:44:35;;;;;;;34.10;16.30;;;;;;;1.56;35.63;100707.22;233346;1221;139649;-62
2022/03/11 20:49:38;;;;;;;34.30;15.30;;;;;;;1.44;35.56;100700.20;233343;1221;139602;-61
2022/03/11 20:54:41;;;;;;;30.90;15.10;;;;;;;1.33;35.60;100695.98;233527;1220;139886;-61
2022/03/11 20:59:44;;;;;;;32.80;15.30;;;;;;;1.24;35.78;100695.09;233435;1221;139608;-59
2022/03/11 21:04:48;;;;;;;60.40;27.90;;;;;;;1.18;36.16;100696.30;233052;1221;140105;-59
2022/03/11 21:09:51;;;;;;;47.60;22.20;;;;;;;1.17;36.13;100696.99;233477;1221;140238;-62
2022/03/11 21:14:55;;;;;;;55.00;22.30;;;;;;;1.07;36.35;100696.63;233439;1221;139467;-60
2022/03/11 21:19:58;;;;;;;59.50;24.00;;;;;;;0.98;36.60;100690.83;233451;1220;138983;-61
2022/03/11 21:25:01;;;;;;;248.80;128.30;;;;;;;0.92;37.02;100687.31;233366;1220;138939;-61
2022/03/11 21:30:09;;;;;;;105.00;51.80;;;;;;;0.97;37.31;100681.39;233356;1221;139415;-63
2022/03/11 21:35:12;;;;;;;57.60;25.40;;;;;;;0.98;37.56;100677.89;233305;1221;139599;-63
2022/03/11 21:40:15;;;;;;;53.80;23.20;;;;;;;0.89;37.40;100681.18;233377;1220;140115;-61
2022/03/11 21:45:19;;;;;;;51.00;22.30;;;;;;;0.76;37.56;100676.06;233359;1221;138891;-60
2022/03/11 21:50:23;;;;;;;46.90;21.00;;;;;;;0.63;37.66;100676.02;233489;1220;138495;-60
2022/03/11 21:55:26;;;;;;;54.00;21.60;;;;;;;0.51;37.65;100676.46;233516;1220;139612;-61
2022/03/11 22:00:30;;;;;;;46.10;20.90;;;;;;;0.43;37.86;100675.02;233559;1221;138943;-60
2022/03/11 22:05:33;;;;;;;52.90;20.90;;;;;;;0.38;37.98;100675.17;233382;1220;138797;-60
2022/03/11 22:10:36;;;;;;;45.00;20.00;;;;;;;0.31;38.14;100684.38;233373;1221;139222;-62
2022/03/11 22:15:39;;;;;;;52.40;22.40;;;;;;;0.23;38.32;100678.92;233481;1220;139815;-60
2022/03/11 22:20:42;;;;;;;47.10;22.30;;;;;;;0.16;38.32;100675.56;233513;1221;138929;-60
2022/03/11 22:25:45;;;;;;;51.70;22.60;;;;;;;0.10;38.44;100677.96;233249;1221;139129;-61
2022/03/11 22:30:48;;;;;;;57.10;24.80;;;;;;;0.05;38.61;100670.77;233597;1221;139098;-60
2022/03/11 22:35:53;;;;;;;59.30;25.80;;;;;;;-0.03;38.95;100670.20;233535;1218;139024;-60
2022/03/11 22:40:55;;;;;;;62.50;25.30;;;;;;;-0.09;39.27;100670.33;233488;1220;139482;-60
2022/03/11 22:46:00;;;;;;;58.10;26.60;;;;;;;-0.14;39.19;100675.89;233441;1220;139510;-60
2022/03/11 22:51:06;;;;;;;62.90;26.90;;;;;;;-0.20;39.44;100674.95;233392;1220;142628;-60